createdAt,value
2019-03-19T00:00:02.899Z,39.03
2019-03-19T00:01:02.900Z,39.13
2019-03-19T00:02:02.873Z,39.13
2019-03-19T00:03:02.879Z,39.23
2019-03-19T00:04:02.854Z,39.13
2019-03-19T00:05:02.841Z,39.13
2019-03-19T00:06:02.848Z,39.13
2019-03-19T00:07:02.821Z,39.13
2019-03-19T00:08:02.814Z,39.23
2019-03-19T00:09:02.797Z,39.03
2019-03-19T00:10:02.786Z,39.23
2019-03-19T00:11:02.792Z,39.03
2019-03-19T00:12:02.771Z,39.33
2019-03-19T00:13:02.757Z,38.93
2019-03-19T00:14:02.742Z,39.13
2019-03-19T00:15:02.733Z,39.13
2019-03-19T00:16:02.753Z,39.13
2019-03-19T00:17:02.715Z,39.03
2019-03-19T00:18:02.709Z,39.13
2019-03-19T00:19:02.686Z,38.93
2019-03-19T00:20:02.675Z,38.93
2019-03-19T00:21:02.662Z,39.33
2019-03-19T00:22:02.666Z,38.93
2019-03-19T00:23:02.642Z,39.23
2019-03-19T00:24:02.629Z,39.23
2019-03-19T00:25:02.621Z,39.13
2019-03-19T00:26:02.609Z,39.23
2019-03-19T00:27:02.610Z,39.33
2019-03-19T00:28:02.584Z,39.13
2019-03-19T00:29:02.574Z,39.13
2019-03-19T00:30:02.563Z,38.83
2019-03-19T00:31:02.553Z,39.23
2019-03-19T00:32:02.594Z,39.03
2019-03-19T00:33:02.545Z,39.03
2019-03-19T00:34:02.523Z,39.13
2019-03-19T00:35:02.509Z,39.03
2019-03-19T00:36:02.495Z,39.03
2019-03-19T00:37:02.500Z,38.93
2019-03-19T00:38:02.472Z,39.13
2019-03-19T00:39:02.460Z,38.63
2019-03-19T00:40:02.451Z,38.83
2019-03-19T00:41:02.441Z,39.03
2019-03-19T00:42:02.444Z,39.23
2019-03-19T00:43:02.419Z,38.93
2019-03-19T00:44:02.404Z,39.13
2019-03-19T00:45:02.395Z,39.23
2019-03-19T00:46:02.386Z,38.83
2019-03-19T00:47:02.388Z,39.03
2019-03-19T00:48:02.361Z,39.23
2019-03-19T00:49:02.353Z,39.03
2019-03-19T00:50:02.340Z,38.73
2019-03-19T00:51:02.327Z,38.83
2019-03-19T00:52:02.331Z,39.03
2019-03-19T00:53:02.304Z,38.73
2019-03-19T00:54:02.295Z,38.63
2019-03-19T00:55:02.282Z,39.23
2019-03-19T00:56:02.274Z,39.13
2019-03-19T00:57:02.277Z,38.53
2019-03-19T00:58:02.263Z,38.53
2019-03-19T00:59:02.240Z,38.53
2019-03-19T01:00:02.233Z,38.63
2019-03-19T01:01:02.219Z,38.53
2019-03-19T01:02:02.222Z,39.03
2019-03-19T01:03:02.199Z,38.53
2019-03-19T01:04:02.184Z,38.93
2019-03-19T01:05:02.174Z,39.23
2019-03-19T01:06:02.161Z,38.83
2019-03-19T01:07:02.172Z,38.73
2019-03-19T01:08:02.139Z,38.73
2019-03-19T01:09:02.129Z,38.73
2019-03-19T01:10:02.120Z,38.53
2019-03-19T01:11:02.111Z,38.63
2019-03-19T01:12:02.122Z,38.53
2019-03-19T01:13:02.085Z,38.53
2019-03-19T01:14:02.073Z,38.83
2019-03-19T01:15:02.062Z,39.23
2019-03-19T01:16:02.064Z,38.73
2019-03-19T01:17:02.039Z,38.93
2019-03-19T01:18:02.043Z,39.23
2019-03-19T01:19:02.018Z,38.93
2019-03-19T01:20:02.006Z,39.13
2019-03-19T01:21:01.996Z,38.93
2019-03-19T01:22:01.987Z,38.93
2019-03-19T01:23:01.989Z,39.03
2019-03-19T01:24:01.965Z,38.93
2019-03-19T01:25:01.951Z,38.93
2019-03-19T01:26:01.939Z,38.93
2019-03-19T01:27:01.929Z,39.23
2019-03-19T01:28:01.938Z,39.23
2019-03-19T01:29:01.904Z,39.13
2019-03-19T01:30:01.895Z,38.83
2019-03-19T01:31:01.884Z,38.63
2019-03-19T01:32:01.872Z,38.63
2019-03-19T01:33:01.876Z,39.23
2019-03-19T01:34:01.851Z,39.23
2019-03-19T01:35:01.839Z,39.13
2019-03-19T01:36:01.828Z,39.23
2019-03-19T01:37:01.818Z,39.03
2019-03-19T01:38:01.826Z,39.13
2019-03-19T01:39:01.799Z,39.13
2019-03-19T01:40:01.784Z,39.03
2019-03-19T01:41:01.773Z,39.13
2019-03-19T01:42:01.762Z,39.03
2019-03-19T01:43:01.768Z,39.23
2019-03-19T01:44:01.739Z,38.73
2019-03-19T01:45:01.729Z,39.13
2019-03-19T01:46:01.719Z,38.93
2019-03-19T01:47:01.708Z,38.93
2019-03-19T01:48:01.709Z,38.93
2019-03-19T01:49:01.683Z,38.73
2019-03-19T01:50:01.674Z,38.93
2019-03-19T01:51:01.660Z,38.53
2019-03-19T01:52:01.650Z,38.93
2019-03-19T01:53:01.661Z,38.53
2019-03-19T01:54:01.628Z,38.73
2019-03-19T01:55:01.620Z,38.73
2019-03-19T01:56:05.527Z,38.83
2019-03-19T01:57:01.604Z,39.23
2019-03-19T01:58:01.597Z,38.53
2019-03-19T01:59:01.571Z,38.73
2019-03-19T02:00:01.562Z,38.63
2019-03-19T02:01:01.547Z,38.53
2019-03-19T02:02:01.537Z,38.83
2019-03-19T02:03:01.540Z,38.83
2019-03-19T02:04:01.518Z,38.53
2019-03-19T02:05:01.505Z,38.73
2019-03-19T02:06:01.493Z,38.63
2019-03-19T02:07:01.484Z,39.15
2019-03-19T02:08:01.485Z,38.53
2019-03-19T02:09:01.459Z,38.43
2019-03-19T02:10:01.452Z,38.53
2019-03-19T02:11:01.440Z,38.63
2019-03-19T02:12:01.426Z,38.63
2019-03-19T02:13:01.431Z,38.73
2019-03-19T02:14:01.407Z,38.43
2019-03-19T02:15:01.393Z,38.63
2019-03-19T02:16:01.381Z,38.73
2019-03-19T02:17:01.370Z,38.43
2019-03-19T02:18:01.384Z,38.65
2019-03-19T02:19:01.347Z,38.63
2019-03-19T02:20:01.340Z,38.63
2019-03-19T02:21:01.325Z,38.43
2019-03-19T02:22:01.313Z,38.43
2019-03-19T02:23:01.320Z,38.45
2019-03-19T02:24:01.292Z,38.43
2019-03-19T02:25:01.280Z,38.83
2019-03-19T02:26:01.267Z,38.53
2019-03-19T02:27:01.259Z,38.65
2019-03-19T02:28:01.261Z,38.63
2019-03-19T02:29:01.237Z,38.63
2019-03-19T02:30:01.225Z,38.43
2019-03-19T02:31:01.218Z,38.53
2019-03-19T02:32:01.209Z,38.43
2019-03-19T02:33:01.206Z,38.43
2019-03-19T02:34:01.201Z,38.45
2019-03-19T02:35:01.168Z,38.75
2019-03-19T02:36:01.160Z,38.55
2019-03-19T02:37:01.147Z,38.65
2019-03-19T02:38:01.148Z,38.75
2019-03-19T02:39:01.124Z,38.63
2019-03-19T02:40:01.115Z,38.73
2019-03-19T02:41:01.105Z,38.83
2019-03-19T02:42:01.091Z,38.45
2019-03-19T02:43:01.111Z,38.65
2019-03-19T02:44:01.074Z,38.43
2019-03-19T02:45:01.058Z,38.43
2019-03-19T02:46:01.059Z,38.73
2019-03-19T02:47:01.034Z,38.45
2019-03-19T02:48:01.037Z,38.65
2019-03-19T02:49:01.029Z,38.65
2019-03-19T02:50:01.003Z,38.45
2019-03-19T02:51:00.992Z,38.83
2019-03-19T02:52:00.977Z,38.53
2019-03-19T02:53:00.970Z,38.63
2019-03-19T02:54:00.970Z,39.13
2019-03-19T02:55:00.946Z,38.65
2019-03-19T02:56:00.934Z,39.13
2019-03-19T02:57:00.927Z,38.65
2019-03-19T02:58:00.913Z,38.83
2019-03-19T02:59:00.914Z,38.33
2019-03-19T03:00:00.913Z,38.83
2019-03-19T03:01:00.878Z,39.05
2019-03-19T03:02:00.864Z,38.85
2019-03-19T03:03:00.856Z,38.85
2019-03-19T03:04:00.858Z,38.93
2019-03-19T03:05:00.835Z,38.83
2019-03-19T03:06:00.827Z,38.85
2019-03-19T03:07:00.819Z,38.83
2019-03-19T03:08:00.811Z,38.85
2019-03-19T03:09:00.827Z,38.63
2019-03-19T03:10:00.779Z,38.65
2019-03-19T03:11:00.763Z,38.75
2019-03-19T03:12:00.761Z,38.83
2019-03-19T03:13:00.750Z,38.83
2019-03-19T03:14:00.763Z,39.05
2019-03-19T03:15:00.720Z,38.73
2019-03-19T03:16:00.709Z,38.83
2019-03-19T03:17:00.701Z,38.83
2019-03-19T03:18:00.691Z,38.95
2019-03-19T03:19:00.708Z,38.95
2019-03-19T03:20:00.717Z,38.95
2019-03-19T03:21:00.657Z,38.53
2019-03-19T03:22:00.664Z,38.95
2019-03-19T03:23:00.632Z,38.73
2019-03-19T03:24:00.639Z,38.95
2019-03-19T03:25:00.752Z,38.83
2019-03-19T03:26:00.597Z,38.53
2019-03-19T03:27:02.294Z,38.93
2019-03-19T03:28:00.582Z,38.55
2019-03-19T03:29:00.579Z,38.65
2019-03-19T03:30:00.590Z,38.55
2019-03-19T03:31:00.541Z,38.75
2019-03-19T03:32:00.530Z,38.53
2019-03-19T03:33:00.525Z,38.53
2019-03-19T03:34:00.550Z,38.85
2019-03-19T03:35:00.867Z,38.93
2019-03-19T03:36:00.489Z,38.55
2019-03-19T03:37:00.499Z,38.93
2019-03-19T03:38:00.468Z,38.85
2019-03-19T03:39:00.467Z,38.45
2019-03-19T03:40:00.560Z,38.73
2019-03-19T03:41:00.433Z,38.75
2019-03-19T03:42:00.420Z,38.95
2019-03-19T03:43:00.406Z,39.03
2019-03-19T03:44:00.411Z,38.75
2019-03-19T03:45:00.520Z,38.85
2019-03-19T03:46:00.394Z,38.53
2019-03-19T03:47:00.365Z,38.85
2019-03-19T03:48:00.353Z,38.95
2019-03-19T03:49:00.381Z,38.75
2019-03-19T03:50:00.499Z,38.85
2019-03-19T03:51:00.318Z,38.83
2019-03-19T03:52:00.317Z,38.75
2019-03-19T03:53:00.296Z,38.95
2019-03-19T03:54:00.298Z,39.03
2019-03-19T03:55:00.468Z,38.85
2019-03-19T03:56:00.263Z,38.75
2019-03-19T03:57:02.449Z,38.85
2019-03-19T03:58:00.243Z,38.73
2019-03-19T03:59:01.351Z,38.55
2019-03-19T04:00:00.409Z,38.85
2019-03-19T04:01:00.208Z,38.55
2019-03-19T04:02:00.206Z,38.85
2019-03-19T04:03:00.184Z,38.73
2019-03-19T04:04:00.192Z,38.33
2019-03-19T04:05:00.361Z,38.45
2019-03-19T04:06:00.154Z,38.35
2019-03-19T04:07:00.140Z,38.35
2019-03-19T04:08:00.126Z,38.55
2019-03-19T04:09:00.133Z,38.15
2019-03-19T04:10:00.470Z,38.35
2019-03-19T04:11:00.094Z,38.45
2019-03-19T04:12:00.084Z,38.65
2019-03-19T04:13:00.074Z,38.35
2019-03-19T04:14:00.076Z,38.73
2019-03-19T04:15:00.048Z,38.23
2019-03-19T04:16:00.040Z,38.33
2019-03-19T04:17:00.029Z,38.35
2019-03-19T04:18:00.016Z,38.15
2019-03-19T04:19:00.039Z,38.53
2019-03-19T04:19:59.998Z,38.53
2019-03-19T04:20:59.987Z,38.15
2019-03-19T04:21:59.971Z,38.33
2019-03-19T04:22:59.963Z,38.93
2019-03-19T04:23:59.950Z,38.33
2019-03-19T04:24:59.953Z,38.75
2019-03-19T04:25:59.928Z,38.85
2019-03-19T04:26:59.916Z,38.73
2019-03-19T04:27:59.905Z,38.15
2019-03-19T04:28:59.894Z,38.55
2019-03-19T04:29:59.897Z,38.15
2019-03-19T04:30:59.870Z,37.63
2019-03-19T04:31:59.869Z,37.95
2019-03-19T04:32:59.850Z,37.83
2019-03-19T04:33:59.836Z,37.63
2019-03-19T04:34:59.854Z,37.83
2019-03-19T04:35:59.815Z,37.95
2019-03-19T04:36:59.804Z,37.93
2019-03-19T04:37:59.792Z,37.63
2019-03-19T04:38:59.781Z,37.85
2019-03-19T04:39:59.787Z,37.83
2019-03-19T04:40:59.829Z,38.43
2019-03-19T04:41:59.747Z,38.35
2019-03-19T04:42:59.735Z,38.73
2019-03-19T04:43:59.728Z,38.73
2019-03-19T04:44:59.728Z,38.83
2019-03-19T04:45:59.700Z,39.13
2019-03-19T04:46:59.693Z,39.13
2019-03-19T04:47:59.678Z,39.03
2019-03-19T04:48:59.667Z,39.23
2019-03-19T04:49:59.672Z,38.63
2019-03-19T04:50:59.646Z,39.03
2019-03-19T04:51:59.635Z,38.93
2019-03-19T04:52:59.625Z,39.03
2019-03-19T04:53:59.613Z,39.13
2019-03-19T04:54:59.614Z,38.63
2019-03-19T04:55:59.592Z,39.13
2019-03-19T04:56:59.579Z,38.83
2019-03-19T04:57:59.567Z,38.93
2019-03-19T04:58:59.556Z,38.53
2019-03-19T04:59:59.559Z,38.73
2019-03-19T05:00:59.535Z,38.63
2019-03-19T05:01:59.522Z,38.63
2019-03-19T05:02:59.512Z,39.13
2019-03-19T05:03:59.500Z,38.83
2019-03-19T05:04:59.503Z,38.83
2019-03-19T05:05:59.725Z,38.83
2019-03-19T05:06:59.465Z,38.63
2019-03-19T05:07:59.459Z,38.63
2019-03-19T05:08:59.444Z,38.83
2019-03-19T05:09:59.447Z,38.43
2019-03-19T05:10:59.421Z,38.83
2019-03-19T05:11:59.411Z,38.53
2019-03-19T05:13:00.784Z,38.33
2019-03-19T05:13:59.388Z,38.73
2019-03-19T05:14:59.392Z,38.43
2019-03-19T05:15:59.368Z,38.43
2019-03-19T05:16:59.356Z,38.33
2019-03-19T05:17:59.343Z,38.43
2019-03-19T05:18:59.332Z,38.43
2019-03-19T05:19:59.335Z,38.83
2019-03-19T05:20:59.309Z,38.83
2019-03-19T05:21:59.298Z,38.63
2019-03-19T05:22:59.288Z,38.23
2019-03-19T05:23:59.276Z,38.63
2019-03-19T05:24:59.281Z,38.63
2019-03-19T05:25:59.256Z,38.63
2019-03-19T05:26:59.244Z,38.23
2019-03-19T05:27:59.233Z,38.03
2019-03-19T05:28:59.224Z,37.83
2019-03-19T05:29:59.243Z,38.53
2019-03-19T05:30:59.200Z,38.33
2019-03-19T05:31:59.187Z,38.53
2019-03-19T05:32:59.176Z,38.43
2019-03-19T05:33:59.170Z,38.03
2019-03-19T05:34:59.166Z,38.73
2019-03-19T05:35:59.160Z,37.63
2019-03-19T05:36:59.132Z,38.03
2019-03-19T05:37:59.122Z,38.13
2019-03-19T05:38:59.111Z,37.93
2019-03-19T05:39:59.096Z,37.83
2019-03-19T05:40:59.105Z,37.73
2019-03-19T05:41:59.074Z,38.23
2019-03-19T05:42:59.062Z,37.43
2019-03-19T05:43:59.052Z,37.83
2019-03-19T05:44:59.041Z,38.03
2019-03-19T05:45:59.048Z,37.93
2019-03-19T05:46:59.021Z,37.93
2019-03-19T05:47:59.009Z,38.13
2019-03-19T05:48:59.000Z,38.03
2019-03-19T05:49:58.985Z,38.13
2019-03-19T05:50:58.988Z,37.93
2019-03-19T05:51:58.962Z,37.93
2019-03-19T05:52:58.953Z,38.05
2019-03-19T05:53:58.944Z,36.94
2019-03-19T05:54:58.929Z,37.05
2019-03-19T05:55:58.934Z,37.25
2019-03-19T05:56:58.909Z,37.35
2019-03-19T05:57:58.897Z,37.05
2019-03-19T05:58:58.887Z,37.35
2019-03-19T05:59:58.911Z,37.55
2019-03-19T06:00:58.878Z,37.27
2019-03-19T06:01:58.851Z,36.94
2019-03-19T06:02:58.841Z,36.87
2019-03-19T06:03:58.872Z,37.16
2019-03-19T06:04:58.819Z,37.07
2019-03-19T06:05:58.834Z,37.07
2019-03-19T06:06:58.801Z,36.96
2019-03-19T06:07:58.783Z,37.08
2019-03-19T06:08:58.773Z,36.98
2019-03-19T06:09:58.762Z,36.98
2019-03-19T06:10:58.770Z,37.28
2019-03-19T06:11:58.743Z,38.39
2019-03-19T06:12:58.729Z,37.88
2019-03-19T06:13:58.717Z,37.68
2019-03-19T06:14:58.709Z,37.57
2019-03-19T06:15:58.712Z,37.48
2019-03-19T06:16:58.692Z,37.16
2019-03-19T06:17:58.671Z,37.16
2019-03-19T06:18:58.662Z,36.98
2019-03-19T06:19:58.649Z,36.87
2019-03-19T06:20:58.658Z,36.96
2019-03-19T06:21:58.629Z,37.16
2019-03-19T06:22:58.618Z,37.87
2019-03-19T06:23:58.607Z,36.96
2019-03-19T06:24:58.597Z,37.77
2019-03-19T06:25:58.606Z,37.66
2019-03-19T06:26:58.572Z,37.87
2019-03-19T06:28:00.613Z,37.37
2019-03-19T06:28:58.552Z,37.66
2019-03-19T06:29:58.538Z,37.77
2019-03-19T06:30:58.542Z,37.96
2019-03-19T06:31:58.519Z,37.96
2019-03-19T06:32:58.509Z,37.96
2019-03-19T06:33:58.494Z,37.95
2019-03-19T06:34:58.485Z,37.96
2019-03-19T06:35:58.485Z,37.96
2019-03-19T06:36:58.461Z,37.75
2019-03-19T06:37:58.447Z,38.17
2019-03-19T06:38:58.438Z,38.77
2019-03-19T06:39:58.429Z,38.85
2019-03-19T06:40:58.431Z,38.55
2019-03-19T06:41:58.403Z,39.25
2019-03-19T06:42:58.394Z,38.95
2019-03-19T06:43:58.381Z,38.75
2019-03-19T06:44:58.371Z,39.25
2019-03-19T06:45:58.374Z,38.95
2019-03-19T06:46:58.349Z,39.25
2019-03-19T06:47:58.337Z,38.75
2019-03-19T06:48:58.335Z,38.83
2019-03-19T06:49:58.314Z,38.95
2019-03-19T06:50:58.319Z,39.25
2019-03-19T06:51:58.292Z,39.23
2019-03-19T06:52:58.284Z,38.53
2019-03-19T06:53:58.272Z,38.83
2019-03-19T06:54:58.258Z,38.93
2019-03-19T06:55:58.262Z,38.83
2019-03-19T06:56:58.235Z,39.23
2019-03-19T06:57:58.230Z,38.83
2019-03-19T06:58:58.218Z,38.53
2019-03-19T06:59:58.202Z,38.93
2019-03-19T07:00:58.208Z,39.13
2019-03-19T07:01:58.180Z,38.93
2019-03-19T07:02:58.170Z,38.53
2019-03-19T07:03:58.159Z,38.83
2019-03-19T07:04:58.147Z,38.63
2019-03-19T07:05:58.166Z,39.23
2019-03-19T07:06:58.126Z,38.93
2019-03-19T07:07:58.112Z,39.03
2019-03-19T07:08:58.103Z,39.23
2019-03-19T07:09:58.090Z,38.93
2019-03-19T07:10:58.078Z,38.93
2019-03-19T07:11:58.082Z,39.03
2019-03-19T07:12:58.056Z,38.83
2019-03-19T07:13:58.045Z,39.03
2019-03-19T07:14:58.036Z,39.03
2019-03-19T07:15:58.023Z,38.93
2019-03-19T07:16:58.027Z,38.91
2019-03-19T07:17:58.001Z,38.93
2019-03-19T07:18:57.996Z,38.53
2019-03-19T07:19:57.979Z,38.73
2019-03-19T07:20:57.971Z,38.73
2019-03-19T07:21:57.970Z,38.53
2019-03-19T07:22:57.945Z,38.73
2019-03-19T07:23:57.937Z,38.53
2019-03-19T07:24:57.923Z,38.73
2019-03-19T07:25:57.911Z,38.53
2019-03-19T07:26:57.914Z,38.83
2019-03-19T07:27:57.888Z,38.43
2019-03-19T07:28:57.878Z,38.33
2019-03-19T07:29:57.867Z,38.83
2019-03-19T07:30:57.869Z,38.63
2019-03-19T07:31:57.862Z,38.83
2019-03-19T07:32:57.837Z,38.83
2019-03-19T07:33:57.822Z,38.81
2019-03-19T07:34:57.812Z,38.81
2019-03-19T07:35:57.800Z,38.83
2019-03-19T07:36:57.810Z,38.83
2019-03-19T07:37:57.778Z,38.83
2019-03-19T07:38:57.765Z,39.13
2019-03-19T07:39:57.758Z,38.83
2019-03-19T07:40:57.743Z,38.83
2019-03-19T07:41:57.749Z,38.83
2019-03-19T07:42:57.723Z,38.81
2019-03-19T07:43:57.710Z,38.63
2019-03-19T07:44:57.698Z,38.61
2019-03-19T07:45:57.688Z,38.61
2019-03-19T07:46:57.691Z,38.71
2019-03-19T07:47:57.665Z,38.71
2019-03-19T07:48:57.656Z,38.51
2019-03-19T07:49:57.644Z,38.71
2019-03-19T07:50:57.632Z,38.51
2019-03-19T07:51:57.636Z,38.63
2019-03-19T07:52:57.614Z,38.51
2019-03-19T07:53:57.599Z,38.61
2019-03-19T07:54:57.588Z,38.21
2019-03-19T07:55:57.579Z,38.51
2019-03-19T07:56:57.582Z,38.61
2019-03-19T07:57:57.557Z,38.21
2019-03-19T07:58:57.543Z,38.42
2019-03-19T07:59:57.533Z,38.21
2019-03-19T08:00:57.521Z,38.42
2019-03-19T08:01:57.526Z,38.71
2019-03-19T08:02:57.499Z,37.81
2019-03-19T08:03:57.488Z,37.81
2019-03-19T08:04:57.477Z,38.42
2019-03-19T08:05:57.466Z,38.11
2019-03-19T08:06:57.471Z,37.81
2019-03-19T08:07:57.443Z,38.21
2019-03-19T08:08:57.438Z,38.01
2019-03-19T08:09:57.421Z,38.11
2019-03-19T08:10:57.410Z,37.92
2019-03-19T08:11:57.414Z,37.81
2019-03-19T08:12:57.388Z,37.92
2019-03-19T08:13:57.379Z,37.92
2019-03-19T08:14:57.369Z,37.92
2019-03-19T08:15:57.356Z,37.92
2019-03-19T08:16:57.361Z,37.81
2019-03-19T08:17:57.334Z,36.91
2019-03-19T08:18:57.322Z,37.31
2019-03-19T08:19:57.392Z,36.91
2019-03-19T08:20:57.300Z,35.81
2019-03-19T08:21:57.318Z,35.73
2019-03-19T08:22:57.281Z,36.03
2019-03-19T08:23:58.809Z,36.13
2019-03-19T08:24:57.258Z,35.83
2019-03-19T08:25:57.250Z,36.03
2019-03-19T08:26:57.234Z,35.83
2019-03-19T08:27:57.235Z,35.93
2019-03-19T08:28:57.211Z,35.93
2019-03-19T08:29:57.202Z,36.53
2019-03-19T08:30:57.191Z,36.53
2019-03-19T08:31:57.180Z,36.33
2019-03-19T08:32:57.184Z,36.33
2019-03-19T08:33:57.157Z,36.23
2019-03-19T08:34:57.146Z,36.13
2019-03-19T08:35:57.135Z,35.93
2019-03-19T08:36:57.123Z,36.31
2019-03-19T08:37:57.175Z,36.71
2019-03-19T08:38:57.101Z,36.81
2019-03-19T08:39:57.090Z,36.81
2019-03-19T08:40:57.079Z,36.21
2019-03-19T08:41:57.070Z,36.11
2019-03-19T08:42:58.329Z,36.21
2019-03-19T08:43:57.047Z,36.41
2019-03-19T08:44:57.036Z,37.21
2019-03-19T08:45:57.025Z,37.11
2019-03-19T08:46:57.015Z,37.01
2019-03-19T08:47:57.018Z,36.91
2019-03-19T08:48:56.995Z,36.91
2019-03-19T08:49:56.981Z,37.11
2019-03-19T08:50:56.972Z,37.11
2019-03-19T08:51:57.001Z,36.91
2019-03-19T08:52:56.964Z,36.91
2019-03-19T08:53:56.938Z,37.11
2019-03-19T08:54:56.927Z,36.91
2019-03-19T08:55:56.916Z,36.41
2019-03-19T08:56:56.908Z,37.11
2019-03-19T08:57:56.910Z,36.11
2019-03-19T08:59:05.560Z,36.41
2019-03-19T08:59:57.872Z,36.41
2019-03-19T09:00:56.867Z,35.91
2019-03-19T09:01:56.853Z,36.51
2019-03-19T09:02:56.859Z,35.81
2019-03-19T09:03:56.831Z,35.81
2019-03-19T09:04:56.822Z,36.19
2019-03-19T09:05:56.809Z,36.31
2019-03-19T09:06:56.799Z,36.10
2019-03-19T09:07:56.803Z,36.31
2019-03-19T09:08:56.778Z,36.29
2019-03-19T09:09:56.787Z,36.19
2019-03-19T09:10:56.759Z,36.49
2019-03-19T09:11:56.745Z,36.19
2019-03-19T09:12:56.749Z,36.31
2019-03-19T09:13:56.724Z,35.80
2019-03-19T09:14:56.712Z,35.80
2019-03-19T09:15:56.703Z,35.81
2019-03-19T09:16:56.693Z,35.80
2019-03-19T09:17:56.714Z,35.49
2019-03-19T09:18:56.669Z,35.39
2019-03-19T09:19:56.659Z,35.60
2019-03-19T09:20:56.649Z,35.30
2019-03-19T09:21:56.639Z,35.30
2019-03-19T09:22:56.627Z,35.49
2019-03-19T09:23:56.676Z,35.80
2019-03-19T09:24:56.606Z,35.80
2019-03-19T09:25:56.598Z,35.89
2019-03-19T09:26:56.584Z,35.80
2019-03-19T09:27:56.575Z,35.30
2019-03-19T09:28:56.579Z,35.30
2019-03-19T09:29:56.553Z,35.60
2019-03-19T09:30:56.540Z,35.30
2019-03-19T09:31:56.529Z,35.80
2019-03-19T09:32:56.521Z,35.89
2019-03-19T09:33:56.521Z,35.51
2019-03-19T09:34:56.497Z,35.19
2019-03-19T09:35:56.487Z,35.69
2019-03-19T09:36:57.681Z,35.41
2019-03-19T09:37:58.805Z,35.30
2019-03-19T09:38:56.468Z,36.19
2019-03-19T09:39:56.441Z,35.89
2019-03-19T09:40:56.431Z,35.89
2019-03-19T09:41:56.423Z,36.60
2019-03-19T09:42:56.410Z,36.29
2019-03-19T09:43:56.414Z,36.01
2019-03-19T09:44:58.739Z,36.31
2019-03-19T09:45:56.379Z,36.21
2019-03-19T09:46:56.365Z,36.21
2019-03-19T09:47:56.355Z,36.29
2019-03-19T09:48:56.360Z,36.60
2019-03-19T09:49:56.336Z,36.19
2019-03-19T09:50:56.322Z,36.40
2019-03-19T09:51:56.312Z,35.91
2019-03-19T09:52:56.302Z,35.99
2019-03-19T09:53:56.306Z,36.10
2019-03-19T09:54:56.281Z,35.10
2019-03-19T09:55:56.269Z,36.11
2019-03-19T09:56:56.258Z,35.10
2019-03-19T09:57:56.253Z,35.89
2019-03-19T09:58:56.251Z,35.19
2019-03-19T09:59:56.225Z,35.19
2019-03-19T10:00:56.215Z,35.99
2019-03-19T10:01:56.205Z,35.80
2019-03-19T10:02:56.195Z,36.01
2019-03-19T10:03:56.199Z,36.29
2019-03-19T10:04:56.173Z,36.29
2019-03-19T10:05:56.164Z,36.29
2019-03-19T10:07:05.751Z,36.19
2019-03-19T10:07:57.142Z,36.19
2019-03-19T10:08:56.145Z,36.29
2019-03-19T10:09:56.118Z,36.29
2019-03-19T10:10:56.108Z,36.19
2019-03-19T10:11:56.097Z,36.29
2019-03-19T10:12:56.090Z,35.80
2019-03-19T10:13:56.111Z,35.80
2019-03-19T10:14:56.067Z,35.99
2019-03-19T10:15:56.055Z,36.60
2019-03-19T10:16:56.050Z,36.10
2019-03-19T10:17:56.034Z,35.89
2019-03-19T10:18:56.023Z,36.40
2019-03-19T10:19:56.027Z,35.88
2019-03-19T10:20:56.000Z,36.28
2019-03-19T10:21:55.991Z,35.98
2019-03-19T10:22:55.978Z,36.88
2019-03-19T10:23:55.966Z,36.98
2019-03-19T10:24:55.972Z,36.98
2019-03-19T10:25:55.948Z,36.98
2019-03-19T10:26:55.934Z,36.78
2019-03-19T10:27:55.922Z,36.58
2019-03-19T10:28:55.910Z,36.68
2019-03-19T10:29:55.918Z,36.78
2019-03-19T10:30:55.886Z,36.58
2019-03-19T10:31:55.875Z,36.68
2019-03-19T10:32:55.867Z,36.78
2019-03-19T10:33:55.851Z,36.68
2019-03-19T10:34:55.856Z,36.88
2019-03-19T10:35:55.829Z,38.38
2019-03-19T10:36:55.817Z,39.78
2019-03-19T10:37:55.808Z,41.17
2019-03-19T10:38:55.794Z,42.47
2019-03-19T10:39:55.799Z,41.67
2019-03-19T10:40:55.775Z,41.67
2019-03-19T10:41:55.760Z,39.67
2019-03-19T10:42:55.747Z,39.07
2019-03-19T10:43:55.740Z,38.28
2019-03-19T10:44:55.742Z,37.18
2019-03-19T10:45:55.714Z,37.27
2019-03-19T10:46:55.702Z,36.49
2019-03-19T10:47:55.693Z,36.47
2019-03-19T10:48:55.677Z,35.28
2019-03-19T10:49:55.684Z,35.89
2019-03-19T10:50:55.655Z,35.89
2019-03-19T10:51:55.644Z,34.99
2019-03-19T10:52:55.632Z,35.39
2019-03-19T10:53:55.623Z,33.70
2019-03-19T10:54:55.625Z,34.69
2019-03-19T10:55:55.599Z,34.21
2019-03-19T10:56:55.587Z,33.81
2019-03-19T10:57:55.577Z,33.51
2019-03-19T10:58:55.564Z,33.61
2019-03-19T10:59:55.570Z,34.21
2019-03-19T11:00:55.543Z,33.61
2019-03-19T11:01:55.531Z,33.91
2019-03-19T11:02:55.530Z,33.73
2019-03-19T11:03:55.509Z,33.93
2019-03-19T11:04:55.513Z,34.31
2019-03-19T11:05:55.488Z,33.43
2019-03-19T11:06:55.477Z,34.63
2019-03-19T11:07:55.467Z,34.53
2019-03-19T11:08:55.456Z,33.61
2019-03-19T11:09:55.462Z,34.33
2019-03-19T11:10:55.434Z,34.31
2019-03-19T11:11:55.431Z,34.71
2019-03-19T11:12:55.413Z,34.73
2019-03-19T11:13:55.402Z,34.61
2019-03-19T11:14:55.407Z,34.61
2019-03-19T11:15:55.380Z,34.61
2019-03-19T11:16:55.375Z,34.33
2019-03-19T11:17:55.360Z,34.61
2019-03-19T11:18:55.347Z,33.61
2019-03-19T11:19:55.349Z,33.71
2019-03-19T11:20:55.324Z,34.21
2019-03-19T11:21:55.313Z,33.61
2019-03-19T11:22:55.305Z,33.91
2019-03-19T11:23:55.291Z,33.41
2019-03-19T11:24:55.316Z,33.41
2019-03-19T11:25:55.275Z,33.91
2019-03-19T11:26:55.258Z,33.71
2019-03-19T11:27:55.245Z,33.81
2019-03-19T11:28:55.235Z,34.21
2019-03-19T11:29:59.818Z,34.11
2019-03-19T11:30:55.229Z,33.91
2019-03-19T11:31:55.203Z,33.61
2019-03-19T11:32:55.197Z,33.71
2019-03-19T11:33:55.181Z,33.91
2019-03-19T11:34:55.176Z,34.00
2019-03-19T11:35:55.177Z,33.39
2019-03-19T11:36:58.021Z,34.00
2019-03-19T11:37:55.138Z,33.20
2019-03-19T11:38:55.127Z,32.79
2019-03-19T11:39:55.115Z,33.09
2019-03-19T11:40:55.118Z,33.09
2019-03-19T11:41:55.092Z,33.08
2019-03-19T11:42:55.089Z,32.38
2019-03-19T11:43:55.069Z,32.86
2019-03-19T11:44:55.061Z,32.35
2019-03-19T11:45:55.069Z,32.95
2019-03-19T11:46:55.037Z,31.85
2019-03-19T11:47:55.027Z,31.25
2019-03-19T11:48:55.014Z,31.63
2019-03-19T11:49:55.007Z,31.02
2019-03-19T11:50:55.006Z,30.32
2019-03-19T11:51:54.981Z,30.54
2019-03-19T11:52:54.970Z,30.44
2019-03-19T11:53:54.960Z,31.55
2019-03-19T11:54:54.948Z,31.25
2019-03-19T11:55:54.954Z,31.25
2019-03-19T11:56:54.926Z,31.76
2019-03-19T11:57:57.407Z,31.07
2019-03-19T11:58:54.904Z,31.07
2019-03-19T11:59:54.893Z,31.57
2019-03-19T12:00:54.897Z,30.96
2019-03-19T12:01:54.871Z,31.08
2019-03-19T12:02:54.859Z,31.78
2019-03-19T12:03:54.849Z,31.58
2019-03-19T12:04:54.842Z,31.18
2019-03-19T12:05:54.842Z,31.48
2019-03-19T12:06:54.815Z,31.28
2019-03-19T12:07:54.808Z,30.68
2019-03-19T12:08:54.794Z,31.48
2019-03-19T12:09:54.790Z,31.58
2019-03-19T12:10:54.789Z,30.79
2019-03-19T12:11:54.760Z,31.10
2019-03-19T12:12:54.751Z,30.79
2019-03-19T12:13:54.740Z,30.79
2019-03-19T12:14:54.729Z,31.59
2019-03-19T12:15:54.730Z,31.40
2019-03-19T12:16:54.704Z,31.40
2019-03-19T12:17:54.694Z,31.29
2019-03-19T12:18:54.682Z,31.29
2019-03-19T12:19:54.669Z,31.20
2019-03-19T12:20:54.670Z,31.40
2019-03-19T12:21:54.645Z,31.70
2019-03-19T12:22:54.634Z,30.99
2019-03-19T12:23:54.621Z,31.40
2019-03-19T12:24:54.609Z,31.70
2019-03-19T12:25:54.611Z,31.57
2019-03-19T12:26:54.599Z,31.18
2019-03-19T12:27:54.584Z,31.18
2019-03-19T12:28:54.564Z,30.88
2019-03-19T12:29:54.555Z,31.78
2019-03-19T12:30:55.002Z,31.68
2019-03-19T12:31:54.530Z,31.68
2019-03-19T12:32:54.524Z,31.98
2019-03-19T12:33:54.520Z,31.88
2019-03-19T12:34:54.498Z,31.88
2019-03-19T12:35:54.501Z,31.68
2019-03-19T12:36:54.474Z,31.88
2019-03-19T12:37:54.462Z,31.88
2019-03-19T12:38:54.456Z,31.58
2019-03-19T12:39:54.440Z,31.98
2019-03-19T12:40:54.444Z,31.88
2019-03-19T12:41:54.417Z,31.38
2019-03-19T12:42:54.405Z,31.48
2019-03-19T12:43:54.395Z,31.08
2019-03-19T12:44:54.382Z,31.58
2019-03-19T12:45:54.388Z,31.88
2019-03-19T12:46:54.359Z,32.08
2019-03-19T12:47:54.348Z,31.98
2019-03-19T12:48:54.505Z,32.38
2019-03-19T12:49:54.325Z,32.58
2019-03-19T12:50:54.328Z,32.50
2019-03-19T12:51:54.304Z,32.40